Latest Weather Observations for Lucas Heights

IDN60901

Issued at 7:12 am EDT Friday 19 December 2014 (issued every 10 minutes, with the page automatically refreshed every 10 minutes)

About weather observations | Map of Sydney area stations | Latest observations for Sydney area | Other Formats
Station Details ID: 066023 Name: LUCAS HEIGHTS AWS Lat: -34.05 Lon: 150.98 Height: 140.0 m
Data from the previous 72 hours. | See also: Recent months for locations in New South Wales
Date/Time
EDT
Tmp

°C
App
Tmp
°C
Dew
Point
°C
Rel
Hum
%
Delta-T

°C
Wind Press
QNH
hPa
Press
MSL
hPa
Rain
since
9 am
mm
Dir
 
Spd
km/h
Gust
km/h
Spd
kts
Gust
kts
19/07:00am 16.9 12.1 12.9 77 2.2 SSE 30 43 16 23 1010.9 - 0.0
19/06:45am 16.6 12.6 12.9 79 2.1 SSE 26 39 14 21 1010.8 - 0.0
19/06:30am 16.4 12.8 13.0 80 1.9 S 24 41 13 22 1010.6 - 0.0
19/06:15am 16.2 12.2 13.0 81 1.8 S 26 43 14 23 1010.2 - 0.0
19/06:00am 16.3 11.6 13.1 81 1.8 SSE 30 46 16 25 1009.9 - 0.0
19/05:45am 16.3 10.3 13.3 82 1.7 SSE 37 54 20 29 1009.7 - 0.0
19/05:30am 16.4 11.2 13.5 83 1.6 SSE 33 48 18 26 1009.5 - 0.0
19/05:15am 16.5 12.4 13.8 84 1.5 S 28 41 15 22 1009.2 - 0.0
19/05:00am 16.7 13.1 14.2 85 1.4 SSE 26 43 14 23 1009.0 - 0.0
19/04:45am 16.8 14.0 14.4 86 1.4 S 22 35 12 19 1008.9 - 0.0
19/04:30am 17.0 13.9 14.6 86 1.4 S 24 33 13 18 1008.5 - 0.0
19/04:15am 17.4 14.4 14.8 85 1.5 S 24 37 13 20 1008.2 - 0.0
19/04:00am 18.6 16.0 16.0 85 1.6 S 24 39 13 21 1007.8 - 0.0
19/03:45am 19.2 18.1 17.3 89 1.2 SW 19 24 10 13 1007.4 - 0.0
19/03:30am 19.3 18.2 17.8 91 0.9 SW 20 28 11 15 1007.2 - 0.0
19/03:15am 19.5 18.2 18.1 92 0.9 SW 22 28 12 15 1006.9 - 0.0
19/03:00am 19.5 17.8 18.1 92 0.9 SW 24 28 13 15 1006.8 - 0.0
19/02:45am 19.6 18.7 18.2 92 0.9 SW 20 24 11 13 1006.6 - 0.0
19/02:30am 19.7 18.8 18.3 92 0.9 WSW 20 24 11 13 1006.4 - 0.0
19/02:15am 19.7 18.5 18.3 92 0.9 WSW 22 24 12 13 1006.4 - 0.0
19/02:00am 19.8 19.2 18.4 92 0.9 WSW 19 22 10 12 1006.3 - 0.0
19/01:45am 19.2 18.7 17.8 92 0.9 WSW 17 20 9 11 1006.3 - 0.0
19/01:30am 18.3 18.1 16.8 91 0.9 WSW 13 15 7 8 1006.3 - 0.0
19/01:15am 18.3 18.5 16.7 90 1.0 W 11 13 6 7 1006.3 - 0.0
19/01:00am 19.1 19.7 17.6 91 0.9 W 11 13 6 7 1006.3 - 0.0
19/12:45am 19.0 19.9 17.5 91 0.9 WNW 9 11 5 6 1006.4 - 0.0
19/12:30am 19.0 20.2 17.4 90 1.0 NW 7 7 4 4 1006.4 - 0.0
19/12:15am 19.2 20.7 17.6 90 1.0 NNW 6 7 3 4 1006.4 - 0.0
19/12:00am 19.3 20.8 17.7 90 1.0 NNW 6 7 3 4 1006.5 - 0.0
 
Date/Time
EDT
Tmp

°C
App
Tmp
°C
Dew
Point
°C
Rel
Hum
%
Delta-T

°C
Wind Press
QNH
hPa
Press
MSL
hPa
Rain
since
9 am
mm
Dir
 
Spd
km/h
Gust
km/h
Spd
kts
Gust
kts
18/11:45pm 19.5 21.1 17.9 90 1.0 N 6 7 3 4 1006.5 - 0.0
18/11:30pm 19.7 21.3 17.9 89 1.1 N 6 7 3 4 1006.5 - 0.0
18/11:15pm 19.8 21.9 18.1 90 1.1 N 4 6 2 3 1006.5 - 0.0
18/11:00pm 20.0 22.5 18.2 89 1.1 NNE 2 4 1 2 1006.5 - 0.0
18/10:45pm 20.1 22.7 18.3 89 1.1 E 2 4 1 2 1006.6 - 0.0
18/10:30pm 20.2 22.8 18.3 89 1.2 E 2 4 1 2 1006.6 - 0.0
18/10:15pm 20.5 22.8 18.5 88 1.3 E 4 6 2 3 1006.5 - 0.0
18/10:00pm 20.7 23.0 18.6 88 1.3 E 4 6 2 3 1006.4 - 0.0
18/09:45pm 20.8 23.1 18.5 87 1.4 E 4 6 2 3 1006.3 - 0.0
18/09:30pm 21.1 23.4 18.6 86 1.6 E 4 6 2 3 1006.3 - 0.0
18/09:15pm 21.4 23.4 18.8 85 1.6 ENE 6 9 3 5 1006.0 - 0.0
18/09:00pm 21.6 23.5 19.0 85 1.7 ENE 7 13 4 7 1005.9 - 0.0
18/08:45pm 21.8 22.9 18.9 83 1.8 NE 11 15 6 8 1005.7 - 0.0
18/08:30pm 22.0 23.1 18.9 82 2.0 NE 11 19 6 10 1005.7 - 0.0
18/08:15pm 22.2 22.6 18.9 81 2.1 NE 15 22 8 12 1005.5 - 0.0
18/08:00pm 22.5 22.9 18.9 80 2.3 NE 15 24 8 13 1005.4 - 0.0
18/07:45pm 22.9 24.1 19.0 78 2.5 NE 11 19 6 10 1005.3 - 0.0
18/07:30pm 23.1 23.9 19.1 78 2.6 ENE 13 19 7 10 1005.1 - 0.0
18/07:15pm 23.4 23.1 19.1 77 2.8 ENE 19 24 10 13 1004.9 - 0.0
18/07:00pm 23.9 24.4 19.3 75 3.0 ENE 15 22 8 12 1004.7 - 0.0
18/06:45pm 24.1 23.8 19.2 74 3.1 ENE 19 24 10 13 1004.3 - 0.0
18/06:30pm 24.3 24.4 19.2 73 3.3 ENE 17 24 9 13 1004.2 - 0.0
18/06:15pm 24.8 24.9 19.1 70 3.7 ENE 17 24 9 13 1004.0 - 0.0
18/06:00pm 25.0 25.4 19.0 69 3.9 ENE 15 22 8 12 1003.9 - 0.0
18/05:45pm 25.3 26.1 19.0 68 4.0 ENE 13 19 7 10 1003.8 - 0.0
18/05:30pm 25.3 26.5 19.0 68 4.0 ENE 11 20 6 11 1003.7 - 0.0
18/05:15pm 25.5 26.3 19.1 67 4.1 ENE 13 20 7 11 1003.7 - 0.0
18/05:00pm 25.4 26.3 19.2 68 4.0 ENE 13 20 7 11 1003.9 - 0.0
18/04:45pm 25.1 25.6 19.2 70 3.8 ENE 15 26 8 14 1004.1 - 0.0
18/04:30pm 24.6 24.5 18.7 69 3.8 ENE 17 24 9 13 1004.3 - 0.0
18/04:15pm 24.6 24.1 18.6 69 3.8 ENE 19 28 10 15 1004.3 - 0.0
18/04:00pm 24.7 24.0 18.7 69 3.8 ENE 20 32 11 17 1004.7 - 0.0
18/03:45pm 25.3 24.3 18.9 67 4.1 ENE 22 32 12 17 1004.9 - 0.0
18/03:30pm 25.2 24.7 18.7 67 4.2 ENE 19 28 10 15 1005.2 - 0.0
18/03:15pm 25.0 24.4 18.8 68 4.0 ENE 20 28 11 15 1005.3 - 0.0
18/03:00pm 24.9 24.3 18.5 67 4.1 ENE 19 32 10 17 1005.4 - 0.0
18/02:45pm 24.8 23.9 18.3 67 4.1 ENE 20 32 11 17 1005.6 - 0.0
18/02:30pm 24.8 24.2 18.4 67 4.1 ENE 19 26 10 14 1005.8 - 0.0
18/02:15pm 24.6 23.9 18.3 68 4.0 ENE 19 24 10 13 1006.0 - 0.0
18/02:00pm 24.5 23.8 18.3 68 3.9 ENE 19 26 10 14 1006.2 - 0.0
18/01:45pm 24.2 24.3 18.3 69 3.7 NE 15 26 8 14 1006.3 - 0.0
18/01:30pm 24.0 23.6 18.1 69 3.7 ENE 17 24 9 13 1006.5 - 0.0
18/01:15pm 23.3 22.8 17.7 71 3.5 NE 17 24 9 13 1006.7 - 0.0
18/01:00pm 23.0 22.8 17.5 71 3.4 NE 15 22 8 12 1006.9 - 0.0
18/12:45pm 22.8 22.4 17.2 70 3.5 NNE 15 24 8 13 1007.2 - 0.0
18/12:30pm 22.7 22.7 17.2 71 3.4 NNE 13 19 7 10 1007.4 - 0.0
18/12:15pm 22.6 22.7 17.4 72 3.2 N 13 22 7 12 1007.6 - 0.0
18/12:00pm 22.2 22.1 17.0 72 3.2 N 13 24 7 13 1007.8 - 0.0
18/11:45am 22.3 22.6 17.0 72 3.3 NNE 11 17 6 9 1008.0 - 0.0
18/11:30am 22.2 22.5 17.1 73 3.1 N 11 19 6 10 1008.2 - 0.0
18/11:15am 21.7 21.6 17.0 74 2.9 N 13 22 7 12 1008.6 - 0.0
18/11:00am 21.1 21.6 16.5 75 2.8 N 9 15 5 8 1008.8 - 0.0
18/10:45am 20.9 21.3 16.4 75 2.7 N 9 17 5 9 1008.9 - 0.0
18/10:30am 20.8 20.9 16.4 76 2.7 N 11 19 6 10 1009.2 - 0.0
18/10:15am 20.7 21.1 16.3 76 2.7 - 9 17 5 9 1009.4 - 0.0
18/10:00am 20.5 21.5 16.4 77 2.5 N 6 13 3 7 1009.6 - 0.0
18/09:45am 19.6 20.9 16.1 80 2.1 N 4 7 2 4 1009.8 - 0.0
18/09:30am 19.0 20.1 15.5 80 2.1 N 4 7 2 4 1010.1 - 0.0
18/09:15am 18.9 20.0 15.5 80 2.0 N 4 7 2 4 1010.1 - 0.0
18/09:00am 18.4 19.8 15.4 83 1.8 SSW 2 4 1 2 1010.1 - 0.0
18/08:45am 18.0 19.3 15.2 84 1.6 S 2 9 1 5 1010.2 - 0.0
18/08:30am 17.7 18.2 15.0 84 1.6 SSW 6 7 3 4 1010.2 - 0.0
18/08:15am 17.2 17.6 14.7 85 1.5 SW 6 11 3 6 1010.4 - 0.0
18/08:00am 16.9 17.0 14.4 85 1.4 SW 7 13 4 7 1010.5 - 0.0
18/07:45am 16.8 16.5 14.3 85 1.4 WSW 9 11 5 6 1010.5 - 0.0
18/07:30am 16.9 16.9 14.2 84 1.6 W 7 9 4 5 1010.4 - 0.0
18/07:15am 16.9 17.1 14.2 84 1.6 WNW 6 9 3 5 1010.1 - 0.0
18/07:00am 16.8 17.0 14.1 84 1.5 WSW 6 9 3 5 1009.9 - 0.0
18/06:45am 16.7 16.6 14.0 84 1.5 WSW 7 9 4 5 1009.8 - 0.0
18/06:30am 16.7 16.8 14.0 84 1.5 WSW 6 9 3 5 1009.6 - 0.0
18/06:15am 16.6 17.1 14.0 84 1.5 SW 4 7 2 4 1009.3 - 0.0
18/06:00am 16.5 16.6 13.8 84 1.5 SW 6 9 3 5 1009.4 - 0.0
18/05:45am 16.5 16.4 13.8 84 1.5 SW 7 9 4 5 1009.3 - 0.0
18/05:30am 16.5 16.4 13.8 84 1.5 SW 7 9 4 5 1009.3 - 0.0
18/05:15am 16.5 16.6 13.8 84 1.5 SW 6 7 3 4 1009.1 - 0.0
18/05:00am 16.5 16.9 13.7 83 1.6 SSW 4 6 2 3 1008.9 - 0.0
18/04:45am 16.6 17.0 13.7 83 1.6 SSW 4 6 2 3 1008.9 - 0.0
18/04:30am 16.6 17.0 13.7 83 1.6 SSW 4 6 2 3 1008.9 - 0.0
18/04:15am 16.6 17.0 13.7 83 1.6 SSW 4 6 2 3 1008.8 - 0.0
18/04:00am 16.6 17.4 13.7 83 1.6 SE 2 6 1 3 1008.6 - 0.0
18/03:45am 16.6 17.4 13.7 83 1.6 NE 2 4 1 2 1008.9 - 0.0
18/03:30am 16.5 16.9 13.7 83 1.6 N 4 6 2 3 1009.3 - 0.0
18/03:15am 16.5 16.9 13.7 83 1.6 NNW 4 7 2 4 1009.6 - 0.0
18/03:00am 16.5 16.9 13.7 83 1.6 NNW 4 7 2 4 1009.9 - 0.0
18/02:45am 16.5 16.5 13.6 83 1.6 WNW 6 7 3 4 1010.0 - 0.0
18/02:30am 16.5 16.8 13.5 82 1.7 W 4 7 2 4 1010.0 - 0.0
18/02:15am 16.6 16.5 13.4 81 1.8 WSW 6 7 3 4 1010.0 - 0.0
18/02:00am 16.7 17.8 13.5 81 1.8 CALM 0 4 0 2 1010.0 - 0.0
18/01:45am 16.7 17.8 13.5 81 1.8 CALM 0 4 0 2 1010.1 - 0.0
18/01:30am 16.7 17.4 13.4 81 1.9 ESE 2 4 1 2 1010.4 - 0.0
18/01:15am 16.6 17.6 13.1 80 2.0 CALM 0 4 0 2 1010.7 - 0.0
18/01:00am 16.8 17.0 13.1 79 2.1 NNE 4 9 2 5 1010.9 - 0.0
18/12:45am 17.0 17.2 13.1 78 2.2 NNE 4 9 2 5 1010.9 - 0.0
18/12:30am 17.3 16.5 12.9 75 2.5 NE 9 17 5 9 1011.0 - 0.0
18/12:15am 17.5 16.3 12.7 73 2.7 NE 11 19 6 10 1011.0 - 0.0
18/12:00am 17.5 16.9 12.3 71 2.9 NE 7 13 4 7 1010.9 - 0.0
 
Date/Time
EDT
Tmp

°C
App
Tmp
°C
Dew
Point
°C
Rel
Hum
%
Delta-T

°C
Wind Press
QNH
hPa
Press
MSL
hPa
Rain
since
9 am
mm
Dir
 
Spd
km/h
Gust
km/h
Spd
kts
Gust
kts
17/11:45pm 17.6 17.6 12.3 71 2.9 E 4 7 2 4 1011.0 - 0.0
17/11:30pm 17.5 17.4 12.1 70 3.0 E 4 7 2 4 1011.2 - 0.0
17/11:15pm 17.5 17.0 12.0 70 3.0 ESE 6 7 3 4 1011.2 - 0.0
17/11:00pm 17.5 17.0 11.9 69 3.1 ESE 6 7 3 4 1011.2 - 0.0
17/10:45pm 17.6 17.0 11.8 69 3.2 SE 6 7 3 4 1011.3 - 0.0
17/10:30pm 17.7 17.1 11.8 68 3.3 E 6 9 3 5 1011.4 - 0.0
17/10:15pm 17.7 17.5 11.8 68 3.3 E 4 7 2 4 1011.6 - 0.0
17/10:00pm 17.7 17.1 11.7 68 3.3 E 6 9 3 5 1011.4 - 0.0
17/09:45pm 17.7 16.9 11.7 68 3.3 E 7 11 4 6 1011.3 - 0.0
17/09:30pm 17.7 16.5 11.7 68 3.3 E 9 17 5 9 1011.1 - 0.0
17/09:15pm 17.7 15.8 11.7 68 3.3 E 13 20 7 11 1011.0 - 0.0
17/09:00pm 17.7 15.8 11.8 68 3.3 E 13 22 7 12 1011.1 - 0.0
17/08:45pm 17.6 15.3 11.8 69 3.2 E 15 22 8 12 1011.0 - 0.0
17/08:30pm 17.7 15.1 11.9 69 3.2 E 17 24 9 13 1010.9 - 0.0
17/08:15pm 17.8 15.6 12.2 70 3.1 E 15 22 8 12 1010.7 - 0.0
17/08:00pm 17.8 16.1 12.6 71 2.9 ESE 13 22 7 12 1010.3 - 0.0
17/07:45pm 17.9 16.3 12.7 71 2.9 ESE 13 22 7 12 1009.9 - 0.0
17/07:30pm 17.9 16.3 12.7 71 2.9 ESE 13 22 7 12 1009.7 - 0.0
17/07:15pm 17.9 15.5 12.5 70 3.0 ESE 17 24 9 13 1009.4 - 0.0
17/07:00pm 18.0 15.5 12.3 69 3.2 SE 17 24 9 13 1009.2 - 0.0
17/06:45pm 18.1 15.0 12.2 68 3.3 ESE 20 26 11 14 1008.8 - 0.0
17/06:30pm 18.1 15.0 12.3 69 3.2 SE 20 28 11 15 1008.5 - 0.0
17/06:15pm 18.1 15.0 12.3 69 3.2 SE 20 28 11 15 1008.2 - 0.0
17/06:00pm 18.2 15.3 12.4 69 3.2 SE 19 28 10 15 1008.1 - 0.0
17/05:45pm 18.3 15.2 12.3 68 3.4 SE 20 28 11 15 1008.0 - 0.0
17/05:30pm 18.3 15.4 12.3 68 3.4 SE 19 28 10 15 1007.9 - 0.0
17/05:15pm 18.3 15.4 12.4 68 3.3 SE 19 28 10 15 1007.8 - 0.0
17/05:00pm 18.5 15.5 12.4 67 3.4 SE 20 28 11 15 1007.8 - 0.0
17/04:45pm 18.5 15.0 12.3 67 3.5 ESE 22 28 12 15 1007.8 - 0.0
17/04:30pm 18.8 16.0 12.6 67 3.5 ESE 19 28 10 15 1007.8 - 0.0
17/04:15pm 18.8 15.7 12.2 65 3.7 SE 20 30 11 16 1007.7 - 0.0
17/04:00pm 19.1 15.6 12.3 64 3.8 SE 22 32 12 17 1007.6 - 0.0
17/03:45pm 19.3 15.9 12.5 64 3.8 SE 22 32 12 17 1007.6 - 0.0
17/03:30pm 19.2 15.4 12.4 64 3.8 SE 24 33 13 18 1007.7 - 0.0
17/03:15pm 19.3 15.5 12.3 64 3.9 SE 24 33 13 18 1007.6 - 0.0
17/03:00pm 19.4 16.0 12.4 64 3.9 SE 22 35 12 19 1007.7 - 0.0
17/02:45pm 19.5 16.1 12.5 64 3.9 SE 22 35 12 19 1007.6 - 0.0
17/02:30pm 19.4 15.9 12.3 63 4.0 SE 22 33 12 18 1007.7 - 0.0
17/02:15pm 19.3 15.9 12.4 64 3.9 SE 22 32 12 17 1007.6 - 0.0
17/02:00pm 19.8 16.5 12.9 64 3.9 SE 22 33 12 18 1007.6 - 0.0
17/01:45pm 19.4 15.1 12.1 62 4.1 SE 26 35 14 19 1007.6 - 0.0
17/01:30pm 19.8 15.6 12.3 62 4.2 ESE 26 35 14 19 1007.5 - 0.0
17/01:15pm 19.9 16.9 12.5 62 4.2 SE 20 33 11 18 1007.5 - 0.0
17/01:00pm 20.0 17.0 12.5 62 4.2 SE 20 32 11 17 1007.5 - 0.0
17/12:45pm 20.4 16.9 12.3 59 4.6 SE 22 32 12 17 1007.6 - 0.0
17/12:30pm 20.8 17.9 12.8 60 4.6 SE 20 32 11 17 1007.6 - 0.0
17/12:15pm 20.6 17.6 12.7 60 4.5 SE 20 35 11 19 1007.6 - 0.0
17/12:00pm 20.4 17.4 12.7 61 4.4 SSE 20 33 11 18 1007.5 - 0.0
17/11:45am 20.0 15.7 12.2 60 4.4 SSE 26 35 14 19 1007.5 - 0.0
17/11:30am 20.4 18.0 12.7 61 4.4 SSE 17 33 9 18 1007.4 - 0.0
17/11:15am 20.2 16.5 12.7 62 4.3 SSE 24 35 13 19 1007.3 - 0.0
17/11:00am 19.8 16.1 12.7 63 4.0 SSE 24 33 13 18 1007.1 - 0.0
17/10:45am 19.7 15.6 12.7 64 4.0 SSE 26 43 14 23 1007.0 - 0.0
17/10:30am 19.3 14.0 12.5 64 3.8 SSE 32 44 17 24 1006.9 - 0.0
17/10:15am 19.3 13.8 12.5 64 3.8 SSE 33 44 18 24 1006.8 - 0.0
17/10:00am 19.4 14.9 12.7 65 3.8 SE 28 44 15 24 1006.5 - 0.0
17/09:45am 19.6 15.7 13.2 66 3.7 SE 26 41 14 22 1006.4 - 0.0
17/09:30am 19.3 14.2 13.2 68 3.5 SSE 32 48 17 26 1006.3 - 0.0
17/09:15am 19.4 14.5 13.7 69 3.3 SSE 32 52 17 28 1006.1 - 0.0
17/09:00am 19.3 14.8 13.9 71 3.1 SSE 30 46 16 25 1006.0 - 0.0
17/08:45am 19.2 14.4 14.1 72 3.0 SSE 32 46 17 25 1005.7 - 0.0
17/08:30am 19.0 14.6 14.1 73 2.8 SSE 30 50 16 27 1005.4 - 0.0
17/08:15am 18.8 14.1 14.2 74 2.7 SSE 32 48 17 26 1005.2 - 0.0
17/08:00am 18.5 13.2 14.2 76 2.5 SSE 35 52 19 28 1004.8 - 0.0
17/07:45am 18.2 12.9 14.2 77 2.3 SSE 35 54 19 29 1004.5 - 0.0
17/07:30am 18.0 11.9 14.1 78 2.2 SSE 39 57 21 31 1004.1 - 0.0
17/07:15am 17.9 11.0 14.1 78 2.2 SSE 43 57 23 31 1003.7 - 0.0
17/07:00am 17.8 11.7 14.2 79 2.1 SSE 39 57 21 31 1003.3 - 0.0
17/06:45am 17.6 10.8 14.2 80 2.0 SSE 43 59 23 32 1002.9 - 0.0
17/06:30am 17.6 10.8 14.2 80 2.0 SSE 43 59 23 32 1002.4 - 0.0
17/06:15am 17.5 11.0 14.1 80 2.0 SSE 41 59 22 32 1002.1 - 0.0
17/06:00am 17.6 11.5 14.1 80 2.0 SSE 39 54 21 29 1001.7 - 0.0
17/05:45am 17.8 11.4 14.3 80 2.0 SSE 41 61 22 33 1001.3 - 0.0
17/05:30am 18.0 12.0 14.4 79 2.1 SSE 39 57 21 31 1000.7 - 0.0
17/05:15am 18.2 13.5 14.8 80 2.0 SSE 33 48 18 26 1000.5 - 0.0
17/05:00am 18.5 14.0 15.3 81 1.9 SSE 33 48 18 26 1000.2 - 0.0
17/04:45am 18.8 14.5 15.5 81 2.0 SSE 32 44 17 24 999.6 - 0.0
17/04:30am 18.8 15.9 16.1 84 1.6 SSE 26 35 14 19 999.2 - 0.0
17/04:15am 18.9 19.0 16.6 86 1.4 SSW 11 24 6 13 - - -
17/04:00am 19.2 19.5 17.0 87 1.3 W 11 15 6 8 - - -
17/03:45am 18.7 18.9 16.8 89 1.2 NW 11 22 6 12 998.2 - 0.0
17/03:30am 18.3 17.9 16.3 88 1.2 SSW 13 19 7 10 998.1 - 0.0
17/03:15am 18.8 17.9 16.9 89 1.2 SW 17 22 9 12 998.2 - 0.0
17/03:00am 18.9 17.4 16.8 87 1.3 WSW 20 24 11 13 - - -
17/02:45am 19.6 18.8 18.0 90 1.0 WSW 19 22 10 12 - - -
17/02:30am 17.7 17.2 15.9 89 1.1 WSW 13 15 7 8 - - -
17/02:15am 17.7 17.5 15.7 88 1.2 WSW 11 15 6 8 - - -
17/02:00am 19.8 19.8 18.2 90 1.0 W 15 20 8 11 - - -
17/01:45am 18.4 17.5 16.8 90 1.0 W 17 20 9 11 - - -
17/01:30am 18.0 18.0 16.3 90 1.0 W 11 15 6 8 - - -
17/01:15am 18.0 17.6 16.1 89 1.1 W 13 17 7 9 - - -
17/01:00am 18.8 19.1 17.0 89 1.1 WNW 11 13 6 7 998.6 - 0.0
17/12:45am 19.3 19.9 17.7 90 1.0 WNW 11 13 6 7 998.7 - 0.0
17/12:30am 18.4 19.0 16.7 90 1.0 WNW 9 13 5 7 998.7 - 0.0
17/12:15am 18.3 19.2 16.5 89 1.1 WNW 7 9 4 5 998.7 - 0.0
17/12:00am 18.5 19.6 16.6 89 1.1 WNW 6 7 3 4 - - -
 
Date/Time
EDT
Tmp

°C
App
Tmp
°C
Dew
Point
°C
Rel
Hum
%
Delta-T

°C
Wind Press
QNH
hPa
Press
MSL
hPa
Rain
since
9 am
mm
Dir
 
Spd
km/h
Gust
km/h
Spd
kts
Gust
kts
16/11:45pm 18.7 20.3 16.8 89 1.2 NW 4 7 2 4 - - -
16/11:30pm 18.9 20.1 16.9 88 1.2 NNW 6 7 3 4 - - -
16/11:15pm 19.1 20.4 17.0 88 1.3 N 6 9 3 5 998.7 - 0.0
16/11:00pm 19.4 20.6 17.3 88 1.3 N 7 9 4 5 - - -
16/10:45pm 19.4 20.5 17.2 87 1.3 NNE 7 13 4 7 998.6 - 0.0
16/10:30pm 19.6 20.4 17.3 86 1.4 NNE 9 11 5 6 - - -
16/10:15pm 19.8 21.0 17.4 86 1.5 NNE 7 11 4 6 - - -
16/10:00pm 20.0 21.8 17.5 85 1.5 NE 4 7 2 4 - - -
16/09:45pm 20.2 21.7 17.6 85 1.6 SE 6 11 3 6 - - -
16/09:30pm 20.3 21.8 17.5 84 1.7 SE 6 11 3 6 - - -
16/09:15pm 20.8 22.3 17.7 82 1.9 E 6 9 3 5 - - -
16/09:00pm 21.2 22.6 17.9 81 2.1 E 7 9 4 5 - - -
16/08:45pm 21.5 23.2 18.0 80 2.2 E 6 9 3 5 - - -
16/08:30pm 21.9 23.6 18.0 78 2.4 ESE 6 9 3 5 - - -
16/08:15pm 22.5 24.0 18.1 76 2.8 E 7 11 4 6 - - -
16/08:00pm 23.1 24.6 18.1 73 3.1 E 7 9 4 5 998.0 - 0.0
16/07:45pm 23.9 25.1 18.3 71 3.5 E 9 13 5 7 997.8 - 0.0
16/07:30pm 24.3 25.6 18.4 69 3.7 E 9 15 5 8 997.7 - 0.0
16/07:15pm 24.7 25.2 18.3 67 4.1 ENE 13 20 7 11 997.4 - 0.0
16/07:00pm 25.2 25.3 18.4 66 4.3 ENE 15 22 8 12 997.3 - 0.0
16/06:45pm 25.4 24.6 18.1 64 4.6 NE 19 28 10 15 997.2 - 0.0
16/06:30pm 25.9 26.0 18.3 63 4.8 ENE 15 22 8 12 997.4 - 0.0
16/06:15pm 26.1 26.9 18.2 61 5.0 E 11 17 6 9 997.4 - 0.0
16/06:00pm 26.3 26.7 18.2 61 5.2 NE 13 22 7 12 997.3 - 0.0
16/05:45pm 26.2 27.4 18.3 61 5.0 ENE 9 17 5 9 997.4 - 0.0
16/05:30pm 25.9 25.6 18.3 63 4.8 NE 17 24 9 13 997.1 - 0.0
16/05:15pm 25.7 25.0 18.2 63 4.8 NE 19 32 10 17 - - -
16/05:00pm 25.8 24.9 18.3 63 4.8 NE 20 33 11 18 - - -
16/04:45pm 25.8 24.9 18.2 63 4.8 NE 20 39 11 21 - - -
16/04:30pm 25.5 23.4 18.1 63 4.7 NE 26 39 14 21 - - -
16/04:15pm 25.5 23.3 17.8 62 4.9 NE 26 41 14 22 - - -
16/04:00pm 25.3 23.8 17.7 62 4.8 NE 22 35 12 19 - - -
16/03:45pm 25.3 22.3 16.9 59 5.2 NE 28 41 15 22 - - -
16/03:30pm 25.8 22.8 16.8 57 5.6 NNE 28 44 15 24 - - -
16/03:15pm 25.8 22.3 16.6 56 5.7 NNE 30 44 16 24 - - -
16/03:00pm 25.8 21.9 16.4 56 5.8 NNE 32 48 17 26 - - -
16/02:45pm 25.5 21.2 16.0 55 5.8 NNE 33 50 18 27 999.8 - 0.0
16/02:30pm 25.6 22.1 16.5 57 5.6 NNE 30 43 16 23 1000.5 - 0.0
16/02:15pm 25.4 23.1 16.7 58 5.4 NNE 24 41 13 22 1000.8 - 0.0
16/02:00pm 25.0 21.9 16.5 59 5.3 NE 28 39 15 21 1001.1 - 0.0
16/01:45pm 24.9 22.7 16.8 60 5.0 NE 24 39 13 21 1001.3 - 0.0
16/01:30pm 24.4 22.5 16.6 61 4.8 NE 22 35 12 19 1001.1 - 0.0
16/01:15pm 24.6 22.9 17.3 64 4.6 NE 22 33 12 18 1001.5 - 0.0
16/01:00pm 23.5 21.6 16.8 66 4.1 NE 22 33 12 18 1002.0 - 0.0
16/12:45pm 22.9 20.8 16.2 66 4.1 NE 22 35 12 19 1002.6 - 0.0
16/12:30pm 23.2 21.9 16.8 67 3.9 NNE 19 30 10 16 1003.0 - 0.0
16/12:15pm 22.7 21.2 16.7 69 3.7 NNE 20 37 11 20 1003.4 - 0.0
16/12:00pm 21.9 20.7 16.2 70 3.5 NNE 17 30 9 16 1003.8 - 0.0
16/11:45am 21.9 20.8 16.3 70 3.4 NE 17 32 9 17 1004.0 - 0.0
16/11:30am 22.2 21.5 16.4 69 3.5 NE 15 24 8 13 1004.2 - 0.0
16/11:15am 22.8 21.6 17.1 70 3.5 ENE 19 28 10 15 1004.4 - 0.0
16/11:00am 21.9 21.7 16.6 72 3.2 ENE 13 22 7 12 1005.0 - 0.0
16/10:45am 21.3 22.2 16.0 72 3.2 E 6 13 3 7 1005.7 - 0.0
16/10:30am 21.2 20.8 16.1 72 3.1 ENE 13 19 7 10 1005.3 - 0.0
16/10:15am 21.1 21.8 15.5 70 3.4 N 6 15 3 8 1006.6 - 0.0
16/10:00am 21.5 21.9 16.4 72 3.1 N 9 22 5 12 1006.0 - 0.0
16/09:45am 20.0 18.4 16.0 78 2.4 NNE 19 28 10 15 1005.5 - 0.0
16/09:30am 19.4 17.9 15.4 77 2.4 NNE 17 28 9 15 1006.7 - 0.0
16/09:15am 19.6 19.6 15.3 76 2.5 N 9 13 5 7 1007.6 - 0.0
16/09:00am 20.1 19.8 15.5 75 2.7 WNW 11 19 6 10 1008.0 - 0.0
16/08:45am 20.1 20.2 15.4 74 2.8 N 9 15 5 8 1006.8 - 0.0
16/08:30am 19.9 19.5 15.3 75 2.7 N 11 17 6 9 1006.5 - 0.0
16/08:15am 19.8 19.0 15.0 74 2.8 - 13 22 7 12 1006.6 - 0.0
16/08:00am 20.3 20.1 15.6 74 2.8 N 11 22 6 12 1006.7 - 0.0
16/07:45am 19.6 18.9 15.3 76 2.5 - 13 24 7 13 1006.5 - 0.0
16/07:30am 19.3 18.2 15.2 77 2.4 N 15 24 8 13 1006.2 - 0.0
16/07:15am 19.1 18.4 15.4 79 2.2 NNE 13 24 7 13 1005.8 - 0.0

Latest Capital City Observations: Canberra | Sydney | Melbourne | Brisbane | Adelaide | Perth | Hobart | Darwin

Other Formats:

Comma delimited format used in spreadsheet applications
http://www.bom.gov.au/fwo/IDN60901/IDN60901.95757.axf

JavaScript Object Notation format (JSON) in row-major order
http://www.bom.gov.au/fwo/IDN60901/IDN60901.95757.json